sensor_id;sensor_type;location;lat;lon;timestamp;P1;P2;P0
47079;PMS5003;33067;49.296;14.470;2023-04-01T00:01:23;5;5;
47079;PMS5003;33067;49.296;14.470;2023-04-01T00:03:48;3;3;
47079;PMS5003;33067;49.296;14.470;2023-04-01T00:06:14;3;3;
47079;PMS5003;33067;49.296;14.470;2023-04-01T00:08:39;2;2;
47079;PMS5003;33067;49.296;14.470;2023-04-01T00:11:04;4;4;
47079;PMS5003;33067;49.296;14.470;2023-04-01T00:13:29;4;3;
47079;PMS5003;33067;49.296;14.470;2023-04-01T00:15:55;4;3;
47079;PMS5003;33067;49.296;14.470;2023-04-01T00:18:20;3;3;
47079;PMS5003;33067;49.296;14.470;2023-04-01T00:20:46;3;3;
47079;PMS5003;33067;49.296;14.470;2023-04-01T00:23:11;4;4;
47079;PMS5003;33067;49.296;14.470;2023-04-01T00:25:36;3;3;
47079;PMS5003;33067;49.296;14.470;2023-04-01T00:28:01;3;3;
47079;PMS5003;33067;49.296;14.470;2023-04-01T00:30:27;30;30;
47079;PMS5003;33067;49.296;14.470;2023-04-01T00:32:52;74;74;
47079;PMS5003;33067;49.296;14.470;2023-04-01T00:35:18;55;55;
47079;PMS5003;33067;49.296;14.470;2023-04-01T00:37:43;35;35;
47079;PMS5003;33067;49.296;14.470;2023-04-01T00:40:20;28;27;
47079;PMS5003;33067;49.296;14.470;2023-04-01T00:42:34;40;38;
47079;PMS5003;33067;49.296;14.470;2023-04-01T00:45:21;44;43;
47079;PMS5003;33067;49.296;14.470;2023-04-01T00:47:25;36;36;
47079;PMS5003;33067;49.296;14.470;2023-04-01T00:49:51;37;36;
47079;PMS5003;33067;49.296;14.470;2023-04-01T00:52:16;35;35;
47079;PMS5003;33067;49.296;14.470;2023-04-01T00:54:41;36;36;
47079;PMS5003;33067;49.296;14.470;2023-04-01T00:57:07;61;59;
47079;PMS5003;33067;49.296;14.470;2023-04-01T00:59:32;96;93;
47079;PMS5003;33067;49.296;14.470;2023-04-01T01:01:56;39;39;
47079;PMS5003;33067;49.296;14.470;2023-04-01T01:04:23;82;82;
47079;PMS5003;33067;49.296;14.470;2023-04-01T01:06:49;85;85;
47079;PMS5003;33067;49.296;14.470;2023-04-01T01:09:15;90;87;
47079;PMS5003;33067;49.296;14.470;2023-04-01T01:11:39;99;97;
47079;PMS5003;33067;49.296;14.470;2023-04-01T01:14:06;21;21;
47079;PMS5003;33067;49.296;14.470;2023-04-01T01:16:29;73;72;
47079;PMS5003;33067;49.296;14.470;2023-04-01T01:18:55;45;45;
47079;PMS5003;33067;49.296;14.470;2023-04-01T01:21:25;57;57;
47079;PMS5003;33067;49.296;14.470;2023-04-01T01:26:16;21;21;
47079;PMS5003;33067;49.296;14.470;2023-04-01T01:28:37;94;93;
47079;PMS5003;33067;49.296;14.470;2023-04-01T01:35:51;2;2;
47079;PMS5003;33067;49.296;14.470;2023-04-01T01:38:17;2;2;
47079;PMS5003;33067;49.296;14.470;2023-04-01T01:40:42;1;1;
47079;PMS5003;33067;49.296;14.470;2023-04-01T01:43:09;2;1;
47079;PMS5003;33067;49.296;14.470;2023-04-01T01:45:33;1;1;
47079;PMS5003;33067;49.296;14.470;2023-04-01T01:47:58;2;2;
47079;PMS5003;33067;49.296;14.470;2023-04-01T01:50:23;1;1;
47079;PMS5003;33067;49.296;14.470;2023-04-01T01:52:48;2;2;
47079;PMS5003;33067;49.296;14.470;2023-04-01T01:57:39;42;41;
47079;PMS5003;33067;49.296;14.470;2023-04-01T02:00:06;123;123;
47079;PMS5003;33067;49.296;14.470;2023-04-01T02:02:30;61;61;
47079;PMS5003;33067;49.296;14.470;2023-04-01T02:04:56;63;59;
47079;PMS5003;33067;49.296;14.470;2023-04-01T02:07:22;37;37;
47079;PMS5003;33067;49.296;14.470;2023-04-01T02:09:46;58;58;
47079;PMS5003;33067;49.296;14.470;2023-04-01T02:13:01;14;13;
47079;PMS5003;33067;49.296;14.470;2023-04-01T02:15:25;42;42;
47079;PMS5003;33067;49.296;14.470;2023-04-01T02:17:50;41;37;
47079;PMS5003;33067;49.296;14.470;2023-04-01T02:20:16;33;33;
47079;PMS5003;33067;49.296;14.470;2023-04-01T02:22:43;51;51;
47079;PMS5003;33067;49.296;14.470;2023-04-01T02:25:07;94;94;
47079;PMS5003;33067;49.296;14.470;2023-04-01T02:27:32;48;46;
47079;PMS5003;33067;49.296;14.470;2023-04-01T02:29:58;79;78;
47079;PMS5003;33067;49.296;14.470;2023-04-01T02:32:24;112;112;
47079;PMS5003;33067;49.296;14.470;2023-04-01T02:34:49;22;22;
47079;PMS5003;33067;49.296;14.470;2023-04-01T02:37:14;21;21;
47079;PMS5003;33067;49.296;14.470;2023-04-01T02:39:40;22;22;
47079;PMS5003;33067;49.296;14.470;2023-04-01T02:42:05;54;54;
47079;PMS5003;33067;49.296;14.470;2023-04-01T02:44:31;95;92;
47079;PMS5003;33067;49.296;14.470;2023-04-01T02:46:56;94;93;
47079;PMS5003;33067;49.296;14.470;2023-04-01T02:49:22;46;46;
47079;PMS5003;33067;49.296;14.470;2023-04-01T02:51:47;8;8;
47079;PMS5003;33067;49.296;14.470;2023-04-01T02:54:12;3;3;
47079;PMS5003;33067;49.296;14.470;2023-04-01T02:56:38;3;3;
47079;PMS5003;33067;49.296;14.470;2023-04-01T02:59:03;2;2;
47079;PMS5003;33067;49.296;14.470;2023-04-01T03:01:28;2;2;
47079;PMS5003;33067;49.296;14.470;2023-04-01T03:03:53;2;2;
47079;PMS5003;33067;49.296;14.470;2023-04-01T03:06:19;1;1;
47079;PMS5003;33067;49.296;14.470;2023-04-01T03:08:44;2;2;
47079;PMS5003;33067;49.296;14.470;2023-04-01T03:11:10;2;2;
47079;PMS5003;33067;49.296;14.470;2023-04-01T03:13:35;1;1;
47079;PMS5003;33067;49.296;14.470;2023-04-01T03:16:00;1;1;
47079;PMS5003;33067;49.296;14.470;2023-04-01T03:18:25;1;1;
47079;PMS5003;33067;49.296;14.470;2023-04-01T03:20:51;2;1;
47079;PMS5003;33067;49.296;14.470;2023-04-01T03:23:16;1;1;
47079;PMS5003;33067;49.296;14.470;2023-04-01T03:25:41;3;2;
47079;PMS5003;33067;49.296;14.470;2023-04-01T03:28:07;3;3;
47079;PMS5003;33067;49.296;14.470;2023-04-01T03:30:32;3;2;
47079;PMS5003;33067;49.296;14.470;2023-04-01T03:32:57;3;3;
47079;PMS5003;33067;49.296;14.470;2023-04-01T03:35:23;3;3;
47079;PMS5003;33067;49.296;14.470;2023-04-01T03:37:49;3;2;
47079;PMS5003;33067;49.296;14.470;2023-04-01T03:40:13;3;1;
47079;PMS5003;33067;49.296;14.470;2023-04-01T03:42:39;1;1;
47079;PMS5003;33067;49.296;14.470;2023-04-01T03:45:04;2;2;
47079;PMS5003;33067;49.296;14.470;2023-04-01T03:47:29;1;1;
47079;PMS5003;33067;49.296;14.470;2023-04-01T03:49:55;4;2;
47079;PMS5003;33067;49.296;14.470;2023-04-01T03:52:20;6;3;
47079;PMS5003;33067;49.296;14.470;2023-04-01T03:54:45;5;4;
47079;PMS5003;33067;49.296;14.470;2023-04-01T03:57:11;5;5;
47079;PMS5003;33067;49.296;14.470;2023-04-01T03:59:36;6;6;
47079;PMS5003;33067;49.296;14.470;2023-04-01T04:02:01;4;4;
47079;PMS5003;33067;49.296;14.470;2023-04-01T04:04:27;2;2;
47079;PMS5003;33067;49.296;14.470;2023-04-01T04:06:53;2;2;
47079;PMS5003;33067;49.296;14.470;2023-04-01T04:09:17;2;2;
47079;PMS5003;33067;49.296;14.470;2023-04-01T04:11:43;2;2;
47079;PMS5003;33067;49.296;14.470;2023-04-01T04:14:08;2;2;
47079;PMS5003;33067;49.296;14.470;2023-04-01T04:16:34;3;3;
47079;PMS5003;33067;49.296;14.470;2023-04-01T04:18:59;5;5;
47079;PMS5003;33067;49.296;14.470;2023-04-01T04:21:24;60;60;
47079;PMS5003;33067;49.296;14.470;2023-04-01T04:23:49;106;106;
47079;PMS5003;33067;49.296;14.470;2023-04-01T04:26:15;70;70;
47079;PMS5003;33067;49.296;14.470;2023-04-01T04:28:40;32;29;
47079;PMS5003;33067;49.296;14.470;2023-04-01T04:31:06;31;27;
47079;PMS5003;33067;49.296;14.470;2023-04-01T04:33:32;24;23;
47079;PMS5003;33067;49.296;14.470;2023-04-01T04:35:57;67;67;
47079;PMS5003;33067;49.296;14.470;2023-04-01T04:38:22;73;72;
47079;PMS5003;33067;49.296;14.470;2023-04-01T04:40:48;29;29;
47079;PMS5003;33067;49.296;14.470;2023-04-01T04:43:13;69;68;
47079;PMS5003;33067;49.296;14.470;2023-04-01T04:45:38;58;58;
47079;PMS5003;33067;49.296;14.470;2023-04-01T04:48:03;107;107;
47079;PMS5003;33067;49.296;14.470;2023-04-01T04:50:29;36;36;
47079;PMS5003;33067;49.296;14.470;2023-04-01T04:52:54;20;20;
47079;PMS5003;33067;49.296;14.470;2023-04-01T04:55:20;14;14;
47079;PMS5003;33067;49.296;14.470;2023-04-01T04:57:45;16;16;
47079;PMS5003;33067;49.296;14.470;2023-04-01T05:00:11;49;49;
47079;PMS5003;33067;49.296;14.470;2023-04-01T05:02:36;22;22;
47079;PMS5003;33067;49.296;14.470;2023-04-01T05:05:01;14;14;
47079;PMS5003;33067;49.296;14.470;2023-04-01T05:07:26;13;13;
47079;PMS5003;33067;49.296;14.470;2023-04-01T05:09:52;31;31;
47079;PMS5003;33067;49.296;14.470;2023-04-01T05:12:17;32;32;
47079;PMS5003;33067;49.296;14.470;2023-04-01T05:14:42;65;65;
47079;PMS5003;33067;49.296;14.470;2023-04-01T05:17:08;33;33;
47079;PMS5003;33067;49.296;14.470;2023-04-01T05:19:33;60;60;
47079;PMS5003;33067;49.296;14.470;2023-04-01T05:21:58;19;19;
47079;PMS5003;33067;49.296;14.470;2023-04-01T05:24:23;60;60;
47079;PMS5003;33067;49.296;14.470;2023-04-01T05:26:48;50;50;
47079;PMS5003;33067;49.296;14.470;2023-04-01T05:29:14;66;66;
47079;PMS5003;33067;49.296;14.470;2023-04-01T05:31:40;7;7;
47079;PMS5003;33067;49.296;14.470;2023-04-01T05:34:05;27;27;
47079;PMS5003;33067;49.296;14.470;2023-04-01T05:36:31;28;28;
47079;PMS5003;33067;49.296;14.470;2023-04-01T05:38:56;32;31;
47079;PMS5003;33067;49.296;14.470;2023-04-01T05:41:21;35;35;
47079;PMS5003;33067;49.296;14.470;2023-04-01T05:43:47;36;36;
47079;PMS5003;33067;49.296;14.470;2023-04-01T05:46:12;39;39;
47079;PMS5003;33067;49.296;14.470;2023-04-01T05:48:38;40;40;
47079;PMS5003;33067;49.296;14.470;2023-04-01T05:51:03;32;32;
47079;PMS5003;33067;49.296;14.470;2023-04-01T05:53:28;33;33;
47079;PMS5003;33067;49.296;14.470;2023-04-01T05:55:54;39;34;
47079;PMS5003;33067;49.296;14.470;2023-04-01T05:58:19;34;34;
47079;PMS5003;33067;49.296;14.470;2023-04-01T06:00:44;29;26;
47079;PMS5003;33067;49.296;14.470;2023-04-01T06:03:09;26;23;
47079;PMS5003;33067;49.296;14.470;2023-04-01T06:05:37;16;16;
47079;PMS5003;33067;49.296;14.470;2023-04-01T06:08:01;16;15;
47079;PMS5003;33067;49.296;14.470;2023-04-01T06:10:28;12;11;
47079;PMS5003;33067;49.296;14.470;2023-04-01T06:12:52;11;11;
47079;PMS5003;33067;49.296;14.470;2023-04-01T06:15:20;12;12;
47079;PMS5003;33067;49.296;14.470;2023-04-01T06:17:46;12;12;
47079;PMS5003;33067;49.296;14.470;2023-04-01T06:20:08;13;13;
47079;PMS5003;33067;49.296;14.470;2023-04-01T06:22:40;12;12;
47079;PMS5003;33067;49.296;14.470;2023-04-01T06:25:05;12;12;
47079;PMS5003;33067;49.296;14.470;2023-04-01T06:27:25;11;11;
47079;PMS5003;33067;49.296;14.470;2023-04-01T06:29:50;7;7;
47079;PMS5003;33067;49.296;14.470;2023-04-01T06:32:17;6;6;
47079;PMS5003;33067;49.296;14.470;2023-04-01T06:34:42;3;2;
47079;PMS5003;33067;49.296;14.470;2023-04-01T06:37:09;1;1;
47079;PMS5003;33067;49.296;14.470;2023-04-01T06:39:33;6;4;
47079;PMS5003;33067;49.296;14.470;2023-04-01T06:41:59;4;4;
47079;PMS5003;33067;49.296;14.470;2023-04-01T06:44:20;3;3;
47079;PMS5003;33067;49.296;14.470;2023-04-01T06:46:45;16;13;
47079;PMS5003;33067;49.296;14.470;2023-04-01T06:49:21;10;8;
47079;PMS5003;33067;49.296;14.470;2023-04-01T06:51:39;4;4;
47079;PMS5003;33067;49.296;14.470;2023-04-01T06:54:03;1;1;
47079;PMS5003;33067;49.296;14.470;2023-04-01T06:56:27;0;0;
47079;PMS5003;33067;49.296;14.470;2023-04-01T06:58:52;3;3;
47079;PMS5003;33067;49.296;14.470;2023-04-01T07:01:18;1;1;
47079;PMS5003;33067;49.296;14.470;2023-04-01T07:03:43;0;0;
47079;PMS5003;33067;49.296;14.470;2023-04-01T07:06:09;1;1;
47079;PMS5003;33067;49.296;14.470;2023-04-01T07:08:35;1;0;
47079;PMS5003;33067;49.296;14.470;2023-04-01T07:10:58;1;1;
47079;PMS5003;33067;49.296;14.470;2023-04-01T07:13:24;0;0;
47079;PMS5003;33067;49.296;14.470;2023-04-01T07:15:51;1;1;
47079;PMS5003;33067;49.296;14.470;2023-04-01T07:18:15;2;1;
47079;PMS5003;33067;49.296;14.470;2023-04-01T07:20:38;1;1;
47079;PMS5003;33067;49.296;14.470;2023-04-01T07:23:04;1;1;
47079;PMS5003;33067;49.296;14.470;2023-04-01T07:25:30;3;1;
47079;PMS5003;33067;49.296;14.470;2023-04-01T07:27:55;5;5;
47079;PMS5003;33067;49.296;14.470;2023-04-01T07:30:21;9;8;
47079;PMS5003;33067;49.296;14.470;2023-04-01T07:32:46;1;1;
47079;PMS5003;33067;49.296;14.470;2023-04-01T07:35:14;6;5;
47079;PMS5003;33067;49.296;14.470;2023-04-01T07:37:38;20;16;
47079;PMS5003;33067;49.296;14.470;2023-04-01T07:40:05;6;6;
47079;PMS5003;33067;49.296;14.470;2023-04-01T07:42:28;4;4;
47079;PMS5003;33067;49.296;14.470;2023-04-01T07:44:54;4;4;
47079;PMS5003;33067;49.296;14.470;2023-04-01T07:47:21;3;2;
47079;PMS5003;33067;49.296;14.470;2023-04-01T07:49:45;10;8;
47079;PMS5003;33067;49.296;14.470;2023-04-01T07:52:08;9;9;
47079;PMS5003;33067;49.296;14.470;2023-04-01T07:54:35;18;16;
47079;PMS5003;33067;49.296;14.470;2023-04-01T07:57:00;6;6;
47079;PMS5003;33067;49.296;14.470;2023-04-01T07:59:24;2;2;
47079;PMS5003;33067;49.296;14.470;2023-04-01T08:01:50;5;5;
47079;PMS5003;33067;49.296;14.470;2023-04-01T08:04:18;10;9;
47079;PMS5003;33067;49.296;14.470;2023-04-01T08:06:40;5;4;
47079;PMS5003;33067;49.296;14.470;2023-04-01T08:09:06;4;4;
47079;PMS5003;33067;49.296;14.470;2023-04-01T08:11:35;6;6;
47079;PMS5003;33067;49.296;14.470;2023-04-01T08:13:58;5;5;
47079;PMS5003;33067;49.296;14.470;2023-04-01T08:16:23;2;2;
47079;PMS5003;33067;49.296;14.470;2023-04-01T08:18:50;4;4;
47079;PMS5003;33067;49.296;14.470;2023-04-01T08:21:13;4;4;
47079;PMS5003;33067;49.296;14.470;2023-04-01T08:23:38;6;5;
47079;PMS5003;33067;49.296;14.470;2023-04-01T08:26:04;1;1;
47079;PMS5003;33067;49.296;14.470;2023-04-01T08:28:29;1;1;
47079;PMS5003;33067;49.296;14.470;2023-04-01T08:30:55;3;3;
47079;PMS5003;33067;49.296;14.470;2023-04-01T08:33:19;2;2;
47079;PMS5003;33067;49.296;14.470;2023-04-01T08:35:46;23;21;
47079;PMS5003;33067;49.296;14.470;2023-04-01T08:38:10;10;10;
47079;PMS5003;33067;49.296;14.470;2023-04-01T08:43:04;3;3;
47079;PMS5003;33067;49.296;14.470;2023-04-01T08:45:29;9;6;
47079;PMS5003;33067;49.296;14.470;2023-04-01T08:50:21;5;5;
47079;PMS5003;33067;49.296;14.470;2023-04-01T08:52:42;4;4;
47079;PMS5003;33067;49.296;14.470;2023-04-01T08:55:20;5;5;
47079;PMS5003;33067;49.296;14.470;2023-04-01T08:57:36;4;4;
47079;PMS5003;33067;49.296;14.470;2023-04-01T09:00:00;4;3;
47079;PMS5003;33067;49.296;14.470;2023-04-01T09:02:26;4;4;
47079;PMS5003;33067;49.296;14.470;2023-04-01T09:04:53;5;3;
47079;PMS5003;33067;49.296;14.470;2023-04-01T09:07:18;5;5;
47079;PMS5003;33067;49.296;14.470;2023-04-01T09:14:36;7;7;
47079;PMS5003;33067;49.296;14.470;2023-04-01T09:17:00;5;5;
47079;PMS5003;33067;49.296;14.470;2023-04-01T09:19:21;2;2;
47079;PMS5003;33067;49.296;14.470;2023-04-01T09:21:49;10;9;
47079;PMS5003;33067;49.296;14.470;2023-04-01T09:24:15;7;4;
47079;PMS5003;33067;49.296;14.470;2023-04-01T09:26:40;2;2;
47079;PMS5003;33067;49.296;14.470;2023-04-01T09:29:03;3;3;
47079;PMS5003;33067;49.296;14.470;2023-04-01T09:36:20;3;3;
47079;PMS5003;33067;49.296;14.470;2023-04-01T09:38:53;3;3;
47079;PMS5003;33067;49.296;14.470;2023-04-01T09:41:11;3;1;
47079;PMS5003;33067;49.296;14.470;2023-04-01T09:43:38;5;3;
47079;PMS5003;33067;49.296;14.470;2023-04-01T09:46:06;2;2;
47079;PMS5003;33067;49.296;14.470;2023-04-01T09:48:29;2;2;
47079;PMS5003;33067;49.296;14.470;2023-04-01T09:50:51;1;1;
47079;PMS5003;33067;49.296;14.470;2023-04-01T09:53:17;2;2;
47079;PMS5003;33067;49.296;14.470;2023-04-01T09:58:14;10;10;
47079;PMS5003;33067;49.296;14.470;2023-04-01T10:00:32;7;7;
47079;PMS5003;33067;49.296;14.470;2023-04-01T10:03:08;4;3;
47079;PMS5003;33067;49.296;14.470;2023-04-01T10:07:52;9;8;
47079;PMS5003;33067;49.296;14.470;2023-04-01T10:10:23;16;13;
47079;PMS5003;33067;49.296;14.470;2023-04-01T10:12:42;23;20;
47079;PMS5003;33067;49.296;14.470;2023-04-01T10:17:32;7;5;
47079;PMS5003;33067;49.296;14.470;2023-04-01T10:19:56;5;5;
47079;PMS5003;33067;49.296;14.470;2023-04-01T10:22:25;7;7;
47079;PMS5003;33067;49.296;14.470;2023-04-01T10:29:42;2;2;
47079;PMS5003;33067;49.296;14.470;2023-04-01T10:36:51;4;4;
47079;PMS5003;33067;49.296;14.470;2023-04-01T10:41:46;1;1;
47079;PMS5003;33067;49.296;14.470;2023-04-01T10:49:02;2;2;
47079;PMS5003;33067;49.296;14.470;2023-04-01T10:53:49;2;2;
47079;PMS5003;33067;49.296;14.470;2023-04-01T10:56:18;1;1;
47079;PMS5003;33067;49.296;14.470;2023-04-01T10:58:47;1;1;
47079;PMS5003;33067;49.296;14.470;2023-04-01T11:01:07;10;10;
47079;PMS5003;33067;49.296;14.470;2023-04-01T11:05:58;6;5;
47079;PMS5003;33067;49.296;14.470;2023-04-01T11:13:16;8;4;
47079;PMS5003;33067;49.296;14.470;2023-04-01T11:15:39;14;11;
47079;PMS5003;33067;49.296;14.470;2023-04-01T11:22:55;9;8;
47079;PMS5003;33067;49.296;14.470;2023-04-01T11:25:20;45;37;
47079;PMS5003;33067;49.296;14.470;2023-04-01T11:27:48;36;32;
47079;PMS5003;33067;49.296;14.470;2023-04-01T11:30:12;25;24;
47079;PMS5003;33067;49.296;14.470;2023-04-01T11:32:37;14;10;
47079;PMS5003;33067;49.296;14.470;2023-04-01T11:35:03;40;35;
47079;PMS5003;33067;49.296;14.470;2023-04-01T11:37:28;20;20;
47079;PMS5003;33067;49.296;14.470;2023-04-01T11:39:54;12;12;
47079;PMS5003;33067;49.296;14.470;2023-04-01T11:42:19;2;2;
47079;PMS5003;33067;49.296;14.470;2023-04-01T11:44:43;5;5;
47079;PMS5003;33067;49.296;14.470;2023-04-01T11:47:12;4;4;
47079;PMS5003;33067;49.296;14.470;2023-04-01T11:49:37;3;3;
47079;PMS5003;33067;49.296;14.470;2023-04-01T11:52:01;5;3;
47079;PMS5003;33067;49.296;14.470;2023-04-01T11:54:25;6;3;
47079;PMS5003;33067;49.296;14.470;2023-04-01T11:56:51;2;2;
47079;PMS5003;33067;49.296;14.470;2023-04-01T11:59:18;4;4;
47079;PMS5003;33067;49.296;14.470;2023-04-01T12:01:42;3;3;
47079;PMS5003;33067;49.296;14.470;2023-04-01T12:04:09;2;2;
47079;PMS5003;33067;49.296;14.470;2023-04-01T12:06:30;3;3;
47079;PMS5003;33067;49.296;14.470;2023-04-01T12:08:54;2;2;
47079;PMS5003;33067;49.296;14.470;2023-04-01T12:11:20;2;2;
47079;PMS5003;33067;49.296;14.470;2023-04-01T12:13:45;2;2;
47079;PMS5003;33067;49.296;14.470;2023-04-01T12:16:16;2;2;
47079;PMS5003;33067;49.296;14.470;2023-04-01T12:18:34;3;3;
47079;PMS5003;33067;49.296;14.470;2023-04-01T12:21:00;2;1;
47079;PMS5003;33067;49.296;14.470;2023-04-01T12:23:29;4;4;
47079;PMS5003;33067;49.296;14.470;2023-04-01T12:25:55;3;3;
47079;PMS5003;33067;49.296;14.470;2023-04-01T12:28:18;6;6;
47079;PMS5003;33067;49.296;14.470;2023-04-01T12:30:42;2;2;
47079;PMS5003;33067;49.296;14.470;2023-04-01T12:35:32;7;7;
47079;PMS5003;33067;49.296;14.470;2023-04-01T12:37:59;7;7;
47079;PMS5003;33067;49.296;14.470;2023-04-01T12:40:29;35;32;
47079;PMS5003;33067;49.296;14.470;2023-04-01T12:42:51;13;13;
47079;PMS5003;33067;49.296;14.470;2023-04-01T12:45:17;5;5;
47079;PMS5003;33067;49.296;14.470;2023-04-01T12:52:31;4;4;
47079;PMS5003;33067;49.296;14.470;2023-04-01T12:55:00;11;11;
47079;PMS5003;33067;49.296;14.470;2023-04-01T12:57:22;2;2;
47079;PMS5003;33067;49.296;14.470;2023-04-01T12:59:47;7;5;
47079;PMS5003;33067;49.296;14.470;2023-04-01T13:02:12;3;3;
47079;PMS5003;33067;49.296;14.470;2023-04-01T13:04:44;3;3;
47079;PMS5003;33067;49.296;14.470;2023-04-01T13:07:07;2;2;
47079;PMS5003;33067;49.296;14.470;2023-04-01T13:09:28;9;7;
47079;PMS5003;33067;49.296;14.470;2023-04-01T13:11:54;3;3;
47079;PMS5003;33067;49.296;14.470;2023-04-01T13:14:19;12;9;
47079;PMS5003;33067;49.296;14.470;2023-04-01T13:16:42;3;3;
47079;PMS5003;33067;49.296;14.470;2023-04-01T13:19:07;2;2;
47079;PMS5003;33067;49.296;14.470;2023-04-01T13:21:34;6;5;
47079;PMS5003;33067;49.296;14.470;2023-04-01T13:23:59;3;3;
47079;PMS5003;33067;49.296;14.470;2023-04-01T13:26:24;1;1;
47079;PMS5003;33067;49.296;14.470;2023-04-01T13:28:49;5;4;
47079;PMS5003;33067;49.296;14.470;2023-04-01T13:31:16;1;1;
47079;PMS5003;33067;49.296;14.470;2023-04-01T13:33:39;2;2;
47079;PMS5003;33067;49.296;14.470;2023-04-01T13:36:08;54;51;
47079;PMS5003;33067;49.296;14.470;2023-04-01T13:40:55;1;1;
47079;PMS5003;33067;49.296;14.470;2023-04-01T13:43:21;16;16;
47079;PMS5003;33067;49.296;14.470;2023-04-01T13:45:54;3;3;
47079;PMS5003;33067;49.296;14.470;2023-04-01T13:50:39;2;2;
47079;PMS5003;33067;49.296;14.470;2023-04-01T13:53:04;2;2;
47079;PMS5003;33067;49.296;14.470;2023-04-01T13:55:31;2;2;
47079;PMS5003;33067;49.296;14.470;2023-04-01T13:57:55;2;2;
47079;PMS5003;33067;49.296;14.470;2023-04-01T14:00:19;5;5;
47079;PMS5003;33067;49.296;14.470;2023-04-01T14:02:47;3;3;
47079;PMS5003;33067;49.296;14.470;2023-04-01T14:05:10;2;2;
47079;PMS5003;33067;49.296;14.470;2023-04-01T14:07:37;2;2;
47079;PMS5003;33067;49.296;14.470;2023-04-01T14:09:59;0;0;
47079;PMS5003;33067;49.296;14.470;2023-04-01T14:12:27;1;1;
47079;PMS5003;33067;49.296;14.470;2023-04-01T14:14:53;0;0;
47079;PMS5003;33067;49.296;14.470;2023-04-01T14:17:17;1;1;
47079;PMS5003;33067;49.296;14.470;2023-04-01T14:22:05;0;0;
47079;PMS5003;33067;49.296;14.470;2023-04-01T14:24:32;1;1;
47079;PMS5003;33067;49.296;14.470;2023-04-01T14:26:56;1;1;
47079;PMS5003;33067;49.296;14.470;2023-04-01T14:29:21;1;1;
47079;PMS5003;33067;49.296;14.470;2023-04-01T14:31:46;1;1;
47079;PMS5003;33067;49.296;14.470;2023-04-01T14:34:11;1;1;
47079;PMS5003;33067;49.296;14.470;2023-04-01T14:36:42;0;0;
47079;PMS5003;33067;49.296;14.470;2023-04-01T14:39:00;0;0;
47079;PMS5003;33067;49.296;14.470;2023-04-01T14:41:27;1;1;
47079;PMS5003;33067;49.296;14.470;2023-04-01T14:48:48;1;1;
47079;PMS5003;33067;49.296;14.470;2023-04-01T14:51:09;1;1;
47079;PMS5003;33067;49.296;14.470;2023-04-01T14:53:30;2;2;
47079;PMS5003;33067;49.296;14.470;2023-04-01T14:55:56;2;2;
47079;PMS5003;33067;49.296;14.470;2023-04-01T14:58:21;2;2;
47079;PMS5003;33067;49.296;14.470;2023-04-01T15:00:47;0;0;
47079;PMS5003;33067;49.296;14.470;2023-04-01T15:03:12;1;1;
47079;PMS5003;33067;49.296;14.470;2023-04-01T15:05:39;5;4;
47079;PMS5003;33067;49.296;14.470;2023-04-01T15:08:03;6;6;
47079;PMS5003;33067;49.296;14.470;2023-04-01T15:10:35;6;6;
47079;PMS5003;33067;49.296;14.470;2023-04-01T15:12:52;5;5;
47079;PMS5003;33067;49.296;14.470;2023-04-01T15:15:21;4;4;
47079;PMS5003;33067;49.296;14.470;2023-04-01T15:17:44;11;10;
47079;PMS5003;33067;49.296;14.470;2023-04-01T15:20:12;7;7;
47079;PMS5003;33067;49.296;14.470;2023-04-01T15:22:37;9;8;
47079;PMS5003;33067;49.296;14.470;2023-04-01T15:25:04;6;6;
47079;PMS5003;33067;49.296;14.470;2023-04-01T15:27:28;3;3;
47079;PMS5003;33067;49.296;14.470;2023-04-01T15:29:53;4;4;
47079;PMS5003;33067;49.296;14.470;2023-04-01T15:32:16;4;4;
47079;PMS5003;33067;49.296;14.470;2023-04-01T15:34:41;4;4;
47079;PMS5003;33067;49.296;14.470;2023-04-01T15:37:07;6;6;
47079;PMS5003;33067;49.296;14.470;2023-04-01T15:39:35;4;2;
47079;PMS5003;33067;49.296;14.470;2023-04-01T15:42:01;5;5;
47079;PMS5003;33067;49.296;14.470;2023-04-01T15:46:46;4;4;
47079;PMS5003;33067;49.296;14.470;2023-04-01T15:49:15;10;7;
47079;PMS5003;33067;49.296;14.470;2023-04-01T15:51:46;8;5;
47079;PMS5003;33067;49.296;14.470;2023-04-01T15:54:05;14;11;
47079;PMS5003;33067;49.296;14.470;2023-04-01T15:56:30;10;10;
47079;PMS5003;33067;49.296;14.470;2023-04-01T15:58:54;12;12;
47079;PMS5003;33067;49.296;14.470;2023-04-01T16:01:22;12;8;
47079;PMS5003;33067;49.296;14.470;2023-04-01T16:03:45;15;14;
47079;PMS5003;33067;49.296;14.470;2023-04-01T16:06:12;26;23;
47079;PMS5003;33067;49.296;14.470;2023-04-01T16:08:40;21;17;
47079;PMS5003;33067;49.296;14.470;2023-04-01T16:11:01;35;30;
47079;PMS5003;33067;49.296;14.470;2023-04-01T16:13:26;14;11;
47079;PMS5003;33067;49.296;14.470;2023-04-01T16:15:51;22;21;
47079;PMS5003;33067;49.296;14.470;2023-04-01T16:18:21;17;15;
47079;PMS5003;33067;49.296;14.470;2023-04-01T16:20:43;22;20;
47079;PMS5003;33067;49.296;14.470;2023-04-01T16:23:10;25;25;
47079;PMS5003;33067;49.296;14.470;2023-04-01T16:25:33;14;14;
47079;PMS5003;33067;49.296;14.470;2023-04-01T16:28:02;6;6;
47079;PMS5003;33067;49.296;14.470;2023-04-01T16:30:26;18;18;
47079;PMS5003;33067;49.296;14.470;2023-04-01T16:32:50;14;10;
47079;PMS5003;33067;49.296;14.470;2023-04-01T16:35:20;6;5;
47079;PMS5003;33067;49.296;14.470;2023-04-01T16:37:41;10;10;
47079;PMS5003;33067;49.296;14.470;2023-04-01T16:42:34;55;51;
47079;PMS5003;33067;49.296;14.470;2023-04-01T16:44:57;101;95;
47079;PMS5003;33067;49.296;14.470;2023-04-01T16:47:21;182;163;
47079;PMS5003;33067;49.296;14.470;2023-04-01T16:49:47;65;57;
47079;PMS5003;33067;49.296;14.470;2023-04-01T16:52:13;36;35;
47079;PMS5003;33067;49.296;14.470;2023-04-01T16:54:40;20;20;
47079;PMS5003;33067;49.296;14.470;2023-04-01T16:57:11;16;16;
47079;PMS5003;33067;49.296;14.470;2023-04-01T16:59:34;22;21;
47079;PMS5003;33067;49.296;14.470;2023-04-01T17:01:57;21;20;
47079;PMS5003;33067;49.296;14.470;2023-04-01T17:04:25;24;23;
47079;PMS5003;33067;49.296;14.470;2023-04-01T17:06:48;22;22;
47079;PMS5003;33067;49.296;14.470;2023-04-01T17:09:16;31;24;
47079;PMS5003;33067;49.296;14.470;2023-04-01T17:11:37;45;42;
47079;PMS5003;33067;49.296;14.470;2023-04-01T17:14:04;18;18;
47079;PMS5003;33067;49.296;14.470;2023-04-01T17:18:54;28;28;
47079;PMS5003;33067;49.296;14.470;2023-04-01T17:21:17;23;23;
47079;PMS5003;33067;49.296;14.470;2023-04-01T17:23:43;119;110;
47079;PMS5003;33067;49.296;14.470;2023-04-01T17:26:12;17;17;
47079;PMS5003;33067;49.296;14.470;2023-04-01T17:28:36;18;18;
47079;PMS5003;33067;49.296;14.470;2023-04-01T17:31:00;22;22;
47079;PMS5003;33067;49.296;14.470;2023-04-01T17:35:52;30;29;
47079;PMS5003;33067;49.296;14.470;2023-04-01T17:38:17;37;34;
47079;PMS5003;33067;49.296;14.470;2023-04-01T17:40:43;28;28;